sensor_id;sensor_type;location;lat;lon;timestamp;pressure;altitude;pressure_sealevel;temperature;humidity
49585;BME280;35491;49.142;9.210;2022-07-23T00:00:37;99682.28;;;26.47;46.65
49585;BME280;35491;49.142;9.210;2022-07-23T00:01:38;99676.78;;;26.42;47.04
49585;BME280;35491;49.142;9.210;2022-07-23T00:02:42;99685.00;;;26.42;47.23
49585;BME280;35491;49.142;9.210;2022-07-23T00:03:43;99678.75;;;26.46;47.02
49585;BME280;35491;49.142;9.210;2022-07-23T00:04:47;99677.28;;;26.39;47.29
49585;BME280;35491;49.142;9.210;2022-07-23T00:05:51;99684.31;;;26.29;47.45
49585;BME280;35491;49.142;9.210;2022-07-23T00:06:54;99676.16;;;26.35;47.20
49585;BME280;35491;49.142;9.210;2022-07-23T00:07:55;99673.97;;;26.37;47.19
49585;BME280;35491;49.142;9.210;2022-07-23T00:08:59;99672.59;;;26.34;47.16
49585;BME280;35491;49.142;9.210;2022-07-23T00:10:00;99661.72;;;26.44;47.05
49585;BME280;35491;49.142;9.210;2022-07-23T00:11:04;99664.84;;;26.53;46.73
49585;BME280;35491;49.142;9.210;2022-07-23T00:12:08;99661.00;;;26.54;46.65
49585;BME280;35491;49.142;9.210;2022-07-23T00:13:09;99664.88;;;26.58;46.48
49585;BME280;35491;49.142;9.210;2022-07-23T00:14:13;99670.72;;;26.40;46.87
49585;BME280;35491;49.142;9.210;2022-07-23T00:15:14;99669.06;;;26.39;46.94
49585;BME280;35491;49.142;9.210;2022-07-23T00:16:18;99669.69;;;26.46;46.76
49585;BME280;35491;49.142;9.210;2022-07-23T00:17:19;99663.38;;;26.45;46.67
49585;BME280;35491;49.142;9.210;2022-07-23T00:18:23;99661.53;;;26.51;46.39
49585;BME280;35491;49.142;9.210;2022-07-23T00:19:24;99656.63;;;26.53;46.37
49585;BME280;35491;49.142;9.210;2022-07-23T00:20:29;99651.44;;;26.57;46.18
49585;BME280;35491;49.142;9.210;2022-07-23T00:21:33;99649.78;;;26.56;46.45
49585;BME280;35491;49.142;9.210;2022-07-23T00:22:37;99648.16;;;26.60;46.08
49585;BME280;35491;49.142;9.210;2022-07-23T00:23:46;99644.59;;;26.59;46.32
49585;BME280;35491;49.142;9.210;2022-07-23T00:24:50;99644.09;;;26.62;46.16
49585;BME280;35491;49.142;9.210;2022-07-23T00:25:51;99644.09;;;26.62;45.94
49585;BME280;35491;49.142;9.210;2022-07-23T00:26:55;99651.66;;;26.50;46.36
49585;BME280;35491;49.142;9.210;2022-07-23T00:27:56;99651.06;;;26.48;46.54
49585;BME280;35491;49.142;9.210;2022-07-23T00:29:00;99655.38;;;26.39;46.37
49585;BME280;35491;49.142;9.210;2022-07-23T00:30:01;99654.78;;;26.37;46.89
49585;BME280;35491;49.142;9.210;2022-07-23T00:31:05;99661.63;;;26.34;46.92
49585;BME280;35491;49.142;9.210;2022-07-23T00:32:06;99668.97;;;26.28;47.02
49585;BME280;35491;49.142;9.210;2022-07-23T00:33:10;99677.16;;;26.23;47.18
49585;BME280;35491;49.142;9.210;2022-07-23T00:34:11;99676.88;;;26.25;46.92
49585;BME280;35491;49.142;9.210;2022-07-23T00:35:15;99670.59;;;26.24;47.42
49585;BME280;35491;49.142;9.210;2022-07-23T00:36:17;99669.38;;;26.15;47.46
49585;BME280;35491;49.142;9.210;2022-07-23T00:37:23;99669.94;;;26.17;47.16
49585;BME280;35491;49.142;9.210;2022-07-23T00:38:24;99667.53;;;26.21;47.35
49585;BME280;35491;49.142;9.210;2022-07-23T00:39:28;99663.91;;;26.15;47.62
49585;BME280;35491;49.142;9.210;2022-07-23T00:40:29;99664.84;;;26.04;47.82
49585;BME280;35491;49.142;9.210;2022-07-23T00:41:33;99659.94;;;26.06;47.95
49585;BME280;35491;49.142;9.210;2022-07-23T00:42:37;99654.47;;;26.06;47.88
49585;BME280;35491;49.142;9.210;2022-07-23T00:43:38;99659.56;;;25.97;47.93
49585;BME280;35491;49.142;9.210;2022-07-23T00:44:42;99647.84;;;26.01;48.26
49585;BME280;35491;49.142;9.210;2022-07-23T00:45:45;99643.84;;;26.09;47.83
49585;BME280;35491;49.142;9.210;2022-07-23T00:46:49;99651.66;;;26.00;48.00
49585;BME280;35491;49.142;9.210;2022-07-23T00:47:53;99647.84;;;26.01;48.01
49585;BME280;35491;49.142;9.210;2022-07-23T00:48:57;99645.41;;;26.05;48.00
49585;BME280;35491;49.142;9.210;2022-07-23T00:49:58;99646.19;;;26.00;48.36
49585;BME280;35491;49.142;9.210;2022-07-23T00:51:02;99658.75;;;25.96;48.02
49585;BME280;35491;49.142;9.210;2022-07-23T00:52:03;99653.81;;;25.98;48.33
49585;BME280;35491;49.142;9.210;2022-07-23T00:53:09;99657.34;;;25.94;48.20
49585;BME280;35491;49.142;9.210;2022-07-23T00:54:11;99665.81;;;25.92;48.41
49585;BME280;35491;49.142;9.210;2022-07-23T00:55:14;99657.97;;;26.01;47.80
49585;BME280;35491;49.142;9.210;2022-07-23T00:56:16;99655.03;;;26.08;47.64
49585;BME280;35491;49.142;9.210;2022-07-23T00:57:19;99645.09;;;26.01;47.69
49585;BME280;35491;49.142;9.210;2022-07-23T00:58:20;99645.19;;;26.07;47.44
49585;BME280;35491;49.142;9.210;2022-07-23T00:59:24;99639.91;;;26.00;47.68
49585;BME280;35491;49.142;9.210;2022-07-23T01:00:25;99643.53;;;26.06;47.38
49585;BME280;35491;49.142;9.210;2022-07-23T01:01:29;99645.19;;;26.07;47.39
49585;BME280;35491;49.142;9.210;2022-07-23T01:02:30;99650.16;;;26.10;47.41
49585;BME280;35491;49.142;9.210;2022-07-23T01:03:34;99653.91;;;26.04;47.35
49585;BME280;35491;49.142;9.210;2022-07-23T01:04:35;99653.47;;;26.12;46.98
49585;BME280;35491;49.142;9.210;2022-07-23T01:05:40;99652.97;;;26.15;46.75
49585;BME280;35491;49.142;9.210;2022-07-23T01:06:42;99653.56;;;26.22;46.66
49585;BME280;35491;49.142;9.210;2022-07-23T01:07:46;99650.38;;;26.08;46.71
49585;BME280;35491;49.142;9.210;2022-07-23T01:08:50;99644.97;;;26.13;46.66
49585;BME280;35491;49.142;9.210;2022-07-23T01:09:54;99650.31;;;26.03;46.39
49585;BME280;35491;49.142;9.210;2022-07-23T01:10:55;99651.66;;;26.00;46.91
49585;BME280;35491;49.142;9.210;2022-07-23T01:11:59;99651.44;;;26.02;46.75
49585;BME280;35491;49.142;9.210;2022-07-23T01:13:01;99655.47;;;25.99;46.68
49585;BME280;35491;49.142;9.210;2022-07-23T01:14:09;99656.53;;;25.93;46.56
49585;BME280;35491;49.142;9.210;2022-07-23T01:15:10;99654.25;;;25.85;46.67
49585;BME280;35491;49.142;9.210;2022-07-23T01:16:16;99660.34;;;25.92;46.72
49585;BME280;35491;49.142;9.210;2022-07-23T01:17:17;99648.25;;;25.88;46.86
49585;BME280;35491;49.142;9.210;2022-07-23T01:18:21;99651.41;;;25.80;46.88
49585;BME280;35491;49.142;9.210;2022-07-23T01:19:22;99651.41;;;25.80;46.89
49585;BME280;35491;49.142;9.210;2022-07-23T01:20:26;99653.34;;;25.79;46.96
49585;BME280;35491;49.142;9.210;2022-07-23T01:21:27;99651.41;;;25.80;46.97
49585;BME280;35491;49.142;9.210;2022-07-23T01:22:33;99648.75;;;25.85;46.78
49585;BME280;35491;49.142;9.210;2022-07-23T01:23:34;99644.94;;;25.86;46.66
49585;BME280;35491;49.142;9.210;2022-07-23T01:24:38;99643.34;;;25.90;46.81
49585;BME280;35491;49.142;9.210;2022-07-23T01:25:46;99638.44;;;25.92;46.80
49585;BME280;35491;49.142;9.210;2022-07-23T01:26:50;99639.72;;;25.84;46.62
49585;BME280;35491;49.142;9.210;2022-07-23T01:27:52;99636.78;;;25.91;46.46
49585;BME280;35491;49.142;9.210;2022-07-23T01:28:56;99631.09;;;25.98;46.28
49585;BME280;35491;49.142;9.210;2022-07-23T01:29:57;99625.44;;;26.05;46.25
49585;BME280;35491;49.142;9.210;2022-07-23T01:31:03;99620.53;;;26.07;46.20
49585;BME280;35491;49.142;9.210;2022-07-23T01:32:04;99620.25;;;26.08;46.17
49585;BME280;35491;49.142;9.210;2022-07-23T01:33:08;99615.13;;;26.12;45.77
49585;BME280;35491;49.142;9.210;2022-07-23T01:34:09;99617.34;;;26.15;45.64
49585;BME280;35491;49.142;9.210;2022-07-23T01:35:13;99604.22;;;26.17;46.00
49585;BME280;35491;49.142;9.210;2022-07-23T01:36:14;99619.06;;;26.21;45.82
49585;BME280;35491;49.142;9.210;2022-07-23T01:37:18;99613.06;;;26.24;45.65
49585;BME280;35491;49.142;9.210;2022-07-23T01:38:21;99612.50;;;26.22;45.63
49585;BME280;35491;49.142;9.210;2022-07-23T01:39:25;99613.00;;;26.19;45.39
49585;BME280;35491;49.142;9.210;2022-07-23T01:40:26;99627.91;;;26.06;46.10
49585;BME280;35491;49.142;9.210;2022-07-23T01:41:30;99628.75;;;26.07;45.65
49585;BME280;35491;49.142;9.210;2022-07-23T01:42:31;99627.09;;;26.06;45.54
49585;BME280;35491;49.142;9.210;2022-07-23T01:43:35;99634.72;;;26.04;45.81
49585;BME280;35491;49.142;9.210;2022-07-23T01:44:38;99634.66;;;25.98;46.21
49585;BME280;35491;49.142;9.210;2022-07-23T01:45:46;99636.28;;;25.94;46.09
49585;BME280;35491;49.142;9.210;2022-07-23T01:46:50;99636.97;;;25.84;46.42
49585;BME280;35491;49.142;9.210;2022-07-23T01:47:51;99636.19;;;25.89;46.56
49585;BME280;35491;49.142;9.210;2022-07-23T01:48:55;99635.25;;;25.78;46.49
49585;BME280;35491;49.142;9.210;2022-07-23T01:49:56;99637.19;;;25.78;46.50
49585;BME280;35491;49.142;9.210;2022-07-23T01:51:00;99629.53;;;25.80;46.69
49585;BME280;35491;49.142;9.210;2022-07-23T01:52:01;99635.00;;;25.80;46.90
49585;BME280;35491;49.142;9.210;2022-07-23T01:53:09;99638.50;;;25.75;46.98
49585;BME280;35491;49.142;9.210;2022-07-23T01:54:13;99627.50;;;25.70;47.13
49585;BME280;35491;49.142;9.210;2022-07-23T01:55:17;99629.75;;;25.73;46.84
49585;BME280;35491;49.142;9.210;2022-07-23T01:56:18;99628.09;;;25.72;47.10
49585;BME280;35491;49.142;9.210;2022-07-23T01:57:22;99623.44;;;25.73;46.92
49585;BME280;35491;49.142;9.210;2022-07-23T01:58:23;99629.34;;;25.64;47.27
49585;BME280;35491;49.142;9.210;2022-07-23T01:59:27;99633.75;;;25.65;47.08
49585;BME280;35491;49.142;9.210;2022-07-23T02:00:28;99631.19;;;25.59;47.05
49585;BME280;35491;49.142;9.210;2022-07-23T02:01:32;99631.47;;;25.57;47.34
49585;BME280;35491;49.142;9.210;2022-07-23T02:02:33;99635.47;;;25.49;47.68
49585;BME280;35491;49.142;9.210;2022-07-23T02:03:37;99637.81;;;25.63;47.12
49585;BME280;35491;49.142;9.210;2022-07-23T02:04:38;99639.47;;;25.64;47.30
49585;BME280;35491;49.142;9.210;2022-07-23T02:05:42;99643.81;;;25.60;47.55
49585;BME280;35491;49.142;9.210;2022-07-23T02:06:43;99648.63;;;25.52;47.66
49585;BME280;35491;49.142;9.210;2022-07-23T02:07:47;99656.53;;;25.49;47.83
49585;BME280;35491;49.142;9.210;2022-07-23T02:08:48;99654.78;;;25.43;48.15
49585;BME280;35491;49.142;9.210;2022-07-23T02:09:54;99653.53;;;25.33;48.21
49585;BME280;35491;49.142;9.210;2022-07-23T02:10:55;99649.13;;;25.32;48.04
49585;BME280;35491;49.142;9.210;2022-07-23T02:11:59;99653.00;;;25.31;47.93
49585;BME280;35491;49.142;9.210;2022-07-23T02:13:00;99647.44;;;25.26;48.29
49585;BME280;35491;49.142;9.210;2022-07-23T02:14:04;99653.38;;;25.23;48.41
49585;BME280;35491;49.142;9.210;2022-07-23T02:15:06;99657.78;;;25.24;48.28
49585;BME280;35491;49.142;9.210;2022-07-23T02:16:10;99652.91;;;25.26;47.96
49585;BME280;35491;49.142;9.210;2022-07-23T02:17:11;99657.63;;;25.14;48.58
49585;BME280;35491;49.142;9.210;2022-07-23T02:18:14;99659.28;;;25.15;48.52
49585;BME280;35491;49.142;9.210;2022-07-23T02:19:16;99656.38;;;25.21;48.37
49585;BME280;35491;49.142;9.210;2022-07-23T02:20:19;99654.56;;;25.27;48.24
49585;BME280;35491;49.142;9.210;2022-07-23T02:21:21;99660.53;;;25.24;48.53
49585;BME280;35491;49.142;9.210;2022-07-23T02:22:25;99659.56;;;25.13;48.53
49585;BME280;35491;49.142;9.210;2022-07-23T02:23:26;99665.94;;;25.19;48.81
49585;BME280;35491;49.142;9.210;2022-07-23T02:24:29;99666.84;;;25.07;48.96
49585;BME280;35491;49.142;9.210;2022-07-23T02:25:33;99673.31;;;25.01;48.94
49585;BME280;35491;49.142;9.210;2022-07-23T02:26:37;99665.69;;;25.03;49.28
49585;BME280;35491;49.142;9.210;2022-07-23T02:27:40;99673.31;;;25.01;49.33
49585;BME280;35491;49.142;9.210;2022-07-23T02:28:44;99673.31;;;25.01;49.52
49585;BME280;35491;49.142;9.210;2022-07-23T02:29:45;99670.44;;;24.91;50.23
49585;BME280;35491;49.142;9.210;2022-07-23T02:30:49;99673.75;;;24.93;50.47
49585;BME280;35491;49.142;9.210;2022-07-23T02:31:50;99667.84;;;25.01;50.07
49585;BME280;35491;49.142;9.210;2022-07-23T02:32:53;99679.44;;;24.91;50.08
49585;BME280;35491;49.142;9.210;2022-07-23T02:33:55;99680.19;;;24.87;50.13
49585;BME280;35491;49.142;9.210;2022-07-23T02:34:59;99675.72;;;24.81;50.48
49585;BME280;35491;49.142;9.210;2022-07-23T02:36:01;99675.13;;;24.79;50.28
49585;BME280;35491;49.142;9.210;2022-07-23T02:37:05;99687.47;;;24.81;50.45
49585;BME280;35491;49.142;9.210;2022-07-23T02:38:06;99688.47;;;24.75;50.71
49585;BME280;35491;49.142;9.210;2022-07-23T02:39:10;99684.34;;;24.72;50.88
49585;BME280;35491;49.142;9.210;2022-07-23T02:40:12;99684.94;;;24.74;50.64
49585;BME280;35491;49.142;9.210;2022-07-23T02:41:18;99684.47;;;24.66;50.77
49585;BME280;35491;49.142;9.210;2022-07-23T02:42:19;99683.53;;;24.60;51.17
49585;BME280;35491;49.142;9.210;2022-07-23T02:43:24;99683.47;;;24.55;51.50
49585;BME280;35491;49.142;9.210;2022-07-23T02:44:25;99687.00;;;24.55;51.62
49585;BME280;35491;49.142;9.210;2022-07-23T02:45:29;99682.28;;;24.51;51.66
49585;BME280;35491;49.142;9.210;2022-07-23T02:46:30;99694.88;;;24.52;51.69
49585;BME280;35491;49.142;9.210;2022-07-23T02:47:33;99693.69;;;24.48;51.70
49585;BME280;35491;49.142;9.210;2022-07-23T02:48:35;99685.88;;;24.51;51.76
49585;BME280;35491;49.142;9.210;2022-07-23T02:49:38;99693.47;;;24.49;51.99
49585;BME280;35491;49.142;9.210;2022-07-23T02:50:39;99687.16;;;24.49;52.01
49585;BME280;35491;49.142;9.210;2022-07-23T02:51:43;99697.13;;;24.55;51.94
49585;BME280;35491;49.142;9.210;2022-07-23T02:52:44;99688.34;;;24.53;52.00
49585;BME280;35491;49.142;9.210;2022-07-23T02:53:48;99694.69;;;24.41;52.63
49585;BME280;35491;49.142;9.210;2022-07-23T02:54:49;99693.03;;;24.40;52.65
49585;BME280;35491;49.142;9.210;2022-07-23T02:55:53;99698.50;;;24.40;52.83
49585;BME280;35491;49.142;9.210;2022-07-23T02:56:56;99708.81;;;24.38;52.90
49585;BME280;35491;49.142;9.210;2022-07-23T02:58:00;99699.97;;;24.31;53.09
49585;BME280;35491;49.142;9.210;2022-07-23T02:59:01;99708.63;;;24.28;53.52
49585;BME280;35491;49.142;9.210;2022-07-23T03:00:05;99717.06;;;24.26;53.52
49585;BME280;35491;49.142;9.210;2022-07-23T03:01:07;99709.13;;;24.25;53.31
49585;BME280;35491;49.142;9.210;2022-07-23T03:02:10;99714.22;;;24.33;53.17
49585;BME280;35491;49.142;9.210;2022-07-23T03:03:12;99713.63;;;24.31;53.14
49585;BME280;35491;49.142;9.210;2022-07-23T03:04:15;99714.28;;;24.38;53.22
49585;BME280;35491;49.142;9.210;2022-07-23T03:05:16;99716.78;;;24.40;52.74
49585;BME280;35491;49.142;9.210;2022-07-23T03:06:20;99724.41;;;24.38;52.81
49585;BME280;35491;49.142;9.210;2022-07-23T03:07:21;99727.94;;;24.38;53.35
49585;BME280;35491;49.142;9.210;2022-07-23T03:08:25;99725.72;;;24.35;52.91
49585;BME280;35491;49.142;9.210;2022-07-23T03:09:26;99725.72;;;24.35;53.10
49585;BME280;35491;49.142;9.210;2022-07-23T03:10:30;99734.47;;;24.37;53.26
49585;BME280;35491;49.142;9.210;2022-07-23T03:11:31;99732.19;;;24.46;52.88
49585;BME280;35491;49.142;9.210;2022-07-23T03:12:37;99731.66;;;24.32;53.46
49585;BME280;35491;49.142;9.210;2022-07-23T03:13:38;99729.59;;;24.39;53.34
49585;BME280;35491;49.142;9.210;2022-07-23T03:14:42;99733.84;;;24.47;53.12
49585;BME280;35491;49.142;9.210;2022-07-23T03:15:43;99726.88;;;24.39;53.48
49585;BME280;35491;49.142;9.210;2022-07-23T03:16:47;99730.97;;;24.25;54.02
49585;BME280;35491;49.142;9.210;2022-07-23T03:17:50;99732.44;;;24.16;54.11
49585;BME280;35491;49.142;9.210;2022-07-23T03:18:53;99730.78;;;24.14;54.29
49585;BME280;35491;49.142;9.210;2022-07-23T03:19:54;99731.59;;;24.15;54.15
49585;BME280;35491;49.142;9.210;2022-07-23T03:20:58;99736.63;;;24.06;54.86
49585;BME280;35491;49.142;9.210;2022-07-23T03:21:59;99734.56;;;24.13;54.30
49585;BME280;35491;49.142;9.210;2022-07-23T03:23:03;99729.06;;;24.25;54.07
49585;BME280;35491;49.142;9.210;2022-07-23T03:24:04;99722.78;;;24.25;53.82
49585;BME280;35491;49.142;9.210;2022-07-23T03:25:08;99723.44;;;24.03;54.79
49585;BME280;35491;49.142;9.210;2022-07-23T03:26:09;99737.09;;;23.91;55.17
49585;BME280;35491;49.142;9.210;2022-07-23T03:27:13;99734.13;;;23.93;55.15
49585;BME280;35491;49.142;9.210;2022-07-23T03:28:17;99740.44;;;23.93;55.19
49585;BME280;35491;49.142;9.210;2022-07-23T03:29:21;99730.69;;;23.97;54.92
49585;BME280;35491;49.142;9.210;2022-07-23T03:30:22;99740.81;;;23.97;54.94
49585;BME280;35491;49.142;9.210;2022-07-23T03:31:26;99740.56;;;23.87;55.39
49585;BME280;35491;49.142;9.210;2022-07-23T03:32:27;99743.53;;;23.85;55.56
49585;BME280;35491;49.142;9.210;2022-07-23T03:33:32;99744.94;;;23.76;55.74
49585;BME280;35491;49.142;9.210;2022-07-23T03:34:33;99744.81;;;23.82;55.81
49585;BME280;35491;49.142;9.210;2022-07-23T03:35:36;99741.88;;;23.84;55.59
49585;BME280;35491;49.142;9.210;2022-07-23T03:36:39;99742.69;;;23.84;55.86
49585;BME280;35491;49.142;9.210;2022-07-23T03:37:43;99739.56;;;23.93;55.51
49585;BME280;35491;49.142;9.210;2022-07-23T03:38:44;99733.69;;;23.96;55.58
49585;BME280;35491;49.142;9.210;2022-07-23T03:39:48;99735.56;;;24.07;54.93
49585;BME280;35491;49.142;9.210;2022-07-23T03:40:49;99738.28;;;24.07;55.09
49585;BME280;35491;49.142;9.210;2022-07-23T03:41:52;99741.16;;;24.01;55.34
49585;BME280;35491;49.142;9.210;2022-07-23T03:42:53;99731.75;;;23.96;55.34
49585;BME280;35491;49.142;9.210;2022-07-23T03:44:00;99738.16;;;23.90;55.53
49585;BME280;35491;49.142;9.210;2022-07-23T03:45:01;99746.13;;;23.80;56.15
49585;BME280;35491;49.142;9.210;2022-07-23T03:46:05;99742.09;;;23.82;56.27
49585;BME280;35491;49.142;9.210;2022-07-23T03:47:06;99756.09;;;23.74;56.49
49585;BME280;35491;49.142;9.210;2022-07-23T03:48:09;99744.13;;;23.75;56.16
49585;BME280;35491;49.142;9.210;2022-07-23T03:49:11;99746.75;;;23.70;56.23
49585;BME280;35491;49.142;9.210;2022-07-23T03:50:14;99748.03;;;23.67;56.29
49585;BME280;35491;49.142;9.210;2022-07-23T03:51:15;99750.41;;;23.64;56.52
49585;BME280;35491;49.142;9.210;2022-07-23T03:52:19;99756.38;;;23.61;56.68
49585;BME280;35491;49.142;9.210;2022-07-23T03:53:20;99751.38;;;23.58;56.49
49585;BME280;35491;49.142;9.210;2022-07-23T03:54:24;99757.78;;;23.63;56.53
49585;BME280;35491;49.142;9.210;2022-07-23T03:55:25;99747.25;;;23.55;56.87
49585;BME280;35491;49.142;9.210;2022-07-23T03:56:29;99753.16;;;23.64;56.37
49585;BME280;35491;49.142;9.210;2022-07-23T03:57:30;99752.44;;;23.57;56.73
49585;BME280;35491;49.142;9.210;2022-07-23T03:58:33;99755.06;;;23.63;56.36
49585;BME280;35491;49.142;9.210;2022-07-23T03:59:37;99751.81;;;23.66;56.51
49585;BME280;35491;49.142;9.210;2022-07-23T04:00:41;99752.81;;;23.48;57.05
49585;BME280;35491;49.142;9.210;2022-07-23T04:01:42;99758.50;;;23.47;57.25
49585;BME280;35491;49.142;9.210;2022-07-23T04:02:45;99757.78;;;23.40;57.39
49585;BME280;35491;49.142;9.210;2022-07-23T04:03:47;99764.19;;;23.45;57.12
49585;BME280;35491;49.142;9.210;2022-07-23T04:04:50;99765.25;;;23.44;57.47
49585;BME280;35491;49.142;9.210;2022-07-23T04:05:52;99762.75;;;23.43;57.16
49585;BME280;35491;49.142;9.210;2022-07-23T04:06:55;99773.78;;;23.36;57.52
49585;BME280;35491;49.142;9.210;2022-07-23T04:07:56;99775.78;;;23.29;57.65
49585;BME280;35491;49.142;9.210;2022-07-23T04:09:00;99776.41;;;23.31;57.96
49585;BME280;35491;49.142;9.210;2022-07-23T04:10:01;99777.94;;;23.39;57.65
49585;BME280;35491;49.142;9.210;2022-07-23T04:11:05;99782.22;;;23.34;57.76
49585;BME280;35491;49.142;9.210;2022-07-23T04:12:06;99783.03;;;23.35;57.45
49585;BME280;35491;49.142;9.210;2022-07-23T04:13:10;99774.88;;;23.47;57.37
49585;BME280;35491;49.142;9.210;2022-07-23T04:14:11;99772.94;;;23.59;56.77
49585;BME280;35491;49.142;9.210;2022-07-23T04:15:17;99764.91;;;23.64;56.59
49585;BME280;35491;49.142;9.210;2022-07-23T04:16:21;99773.44;;;23.68;56.72
49585;BME280;35491;49.142;9.210;2022-07-23T04:17:22;99780.66;;;23.74;56.45
49585;BME280;35491;49.142;9.210;2022-07-23T04:18:26;99774.59;;;23.72;56.33
49585;BME280;35491;49.142;9.210;2022-07-23T04:19:27;99770.00;;;23.73;56.50
49585;BME280;35491;49.142;9.210;2022-07-23T04:20:31;99778.19;;;23.61;56.97
49585;BME280;35491;49.142;9.210;2022-07-23T04:21:32;99772.59;;;23.56;56.94
49585;BME280;35491;49.142;9.210;2022-07-23T04:22:35;99782.56;;;23.62;56.73
49585;BME280;35491;49.142;9.210;2022-07-23T04:23:39;99776.97;;;23.68;56.32
49585;BME280;35491;49.142;9.210;2022-07-23T04:24:40;99768.00;;;23.56;56.94
49585;BME280;35491;49.142;9.210;2022-07-23T04:25:44;99767.16;;;23.56;56.95
49585;BME280;35491;49.142;9.210;2022-07-23T04:26:45;99772.50;;;23.62;56.74
49585;BME280;35491;49.142;9.210;2022-07-23T04:27:49;99773.44;;;23.68;56.41
49585;BME280;35491;49.142;9.210;2022-07-23T04:28:50;99782.69;;;23.55;56.45
49585;BME280;35491;49.142;9.210;2022-07-23T04:29:53;99788.25;;;23.48;56.82
49585;BME280;35491;49.142;9.210;2022-07-23T04:30:58;99795.25;;;23.44;56.95
49585;BME280;35491;49.142;9.210;2022-07-23T04:32:02;99802.50;;;23.50;56.62
49585;BME280;35491;49.142;9.210;2022-07-23T04:33:04;99799.88;;;23.56;56.49
49585;BME280;35491;49.142;9.210;2022-07-23T04:34:12;99798.22;;;23.55;56.51
49585;BME280;35491;49.142;9.210;2022-07-23T04:35:18;99800.13;;;23.42;56.77
49585;BME280;35491;49.142;9.210;2022-07-23T04:36:19;99810.19;;;23.42;57.07
49585;BME280;35491;49.142;9.210;2022-07-23T04:37:23;99809.38;;;23.41;56.83
49585;BME280;35491;49.142;9.210;2022-07-23T04:38:27;99811.97;;;23.36;57.07
49585;BME280;35491;49.142;9.210;2022-07-23T04:39:28;99809.94;;;23.31;57.19
49585;BME280;35491;49.142;9.210;2022-07-23T04:40:32;99804.72;;;23.42;56.83
49585;BME280;35491;49.142;9.210;2022-07-23T04:41:33;99807.72;;;23.52;56.42
49585;BME280;35491;49.142;9.210;2022-07-23T04:42:38;99815.06;;;23.51;56.48
49585;BME280;35491;49.142;9.210;2022-07-23T04:43:39;99813.63;;;23.37;56.63
49585;BME280;35491;49.142;9.210;2022-07-23T04:44:43;99817.91;;;23.33;57.18
49585;BME280;35491;49.142;9.210;2022-07-23T04:45:44;99812.91;;;23.30;57.18
49585;BME280;35491;49.142;9.210;2022-07-23T04:46:50;99818.81;;;23.27;56.98
49585;BME280;35491;49.142;9.210;2022-07-23T04:47:51;99830.84;;;23.38;56.94
49585;BME280;35491;49.142;9.210;2022-07-23T04:48:56;99826.09;;;23.33;56.54
49585;BME280;35491;49.142;9.210;2022-07-23T04:49:57;99835.19;;;23.39;56.56
49585;BME280;35491;49.142;9.210;2022-07-23T04:51:01;99824.28;;;23.39;56.36
49585;BME280;35491;49.142;9.210;2022-07-23T04:52:02;99824.63;;;23.18;56.87
49585;BME280;35491;49.142;9.210;2022-07-23T04:53:06;99833.56;;;23.07;57.44
49585;BME280;35491;49.142;9.210;2022-07-23T04:54:07;99835.09;;;23.03;57.43
49585;BME280;35491;49.142;9.210;2022-07-23T04:55:11;99831.19;;;23.11;57.43
49585;BME280;35491;49.142;9.210;2022-07-23T04:56:12;99822.91;;;23.17;57.16
49585;BME280;35491;49.142;9.210;2022-07-23T04:57:15;99841.03;;;23.12;57.15
49585;BME280;35491;49.142;9.210;2022-07-23T04:58:19;99837.94;;;23.08;57.26
49585;BME280;35491;49.142;9.210;2022-07-23T04:59:21;99833.72;;;23.12;57.05
49585;BME280;35491;49.142;9.210;2022-07-23T05:00:24;99833.72;;;23.12;56.96
49585;BME280;35491;49.142;9.210;2022-07-23T05:01:25;99835.31;;;23.01;57.32
49585;BME280;35491;49.142;9.210;2022-07-23T05:02:32;99838.88;;;23.02;57.21
49585;BME280;35491;49.142;9.210;2022-07-23T05:03:33;99831.59;;;23.14;56.78
49585;BME280;35491;49.142;9.210;2022-07-23T05:04:36;99836.28;;;23.07;57.05
49585;BME280;35491;49.142;9.210;2022-07-23T05:05:39;99838.91;;;23.14;56.89
49585;BME280;35491;49.142;9.210;2022-07-23T05:06:43;99835.06;;;23.21;56.53
49585;BME280;35491;49.142;9.210;2022-07-23T05:07:44;99825.66;;;23.17;56.93
49585;BME280;35491;49.142;9.210;2022-07-23T05:08:47;99831.03;;;23.24;56.72
49585;BME280;35491;49.142;9.210;2022-07-23T05:09:49;99819.88;;;23.26;56.47
49585;BME280;35491;49.142;9.210;2022-07-23T05:10:52;99821.81;;;23.37;56.13
49585;BME280;35491;49.142;9.210;2022-07-23T05:11:53;99818.97;;;23.44;56.64
49585;BME280;35491;49.142;9.210;2022-07-23T05:12:57;99816.09;;;23.39;57.11
49585;BME280;35491;49.142;9.210;2022-07-23T05:13:59;99822.75;;;23.31;56.77
49585;BME280;35491;49.142;9.210;2022-07-23T05:15:03;99829.97;;;23.25;57.54
49585;BME280;35491;49.142;9.210;2022-07-23T05:16:04;99840.13;;;23.18;57.35
49585;BME280;35491;49.142;9.210;2022-07-23T05:17:08;99829.13;;;23.25;57.82
49585;BME280;35491;49.142;9.210;2022-07-23T05:18:13;99845.38;;;23.19;57.90
49585;BME280;35491;49.142;9.210;2022-07-23T05:19:17;99847.03;;;23.20;57.91
49585;BME280;35491;49.142;9.210;2022-07-23T05:20:19;99847.03;;;23.20;57.73
49585;BME280;35491;49.142;9.210;2022-07-23T05:21:23;99844.72;;;23.17;58.92
49585;BME280;35491;49.142;9.210;2022-07-23T05:22:28;99839.00;;;23.07;58.69
49585;BME280;35491;49.142;9.210;2022-07-23T05:23:30;99840.31;;;23.04;58.57
49585;BME280;35491;49.142;9.210;2022-07-23T05:24:35;99841.00;;;23.00;58.91
49585;BME280;35491;49.142;9.210;2022-07-23T05:25:39;99839.25;;;23.05;58.47
49585;BME280;35491;49.142;9.210;2022-07-23T05:26:43;99840.81;;;23.13;58.28
49585;BME280;35491;49.142;9.210;2022-07-23T05:27:45;99845.88;;;23.10;58.50
49585;BME280;35491;49.142;9.210;2022-07-23T05:28:49;99841.75;;;23.07;58.06
49585;BME280;35491;49.142;9.210;2022-07-23T05:29:50;99849.31;;;23.05;58.77
49585;BME280;35491;49.142;9.210;2022-07-23T05:30:54;99849.69;;;23.09;58.30
49585;BME280;35491;49.142;9.210;2022-07-23T05:31:55;99850.97;;;23.06;58.26
49585;BME280;35491;49.142;9.210;2022-07-23T05:32:59;99855.47;;;23.00;58.25